Ana Sayfa
METAR-TAF:

METAR-TAF

Havaalanları :

Kopitnari Havalimanı

Kutais, Gürcistan

Enlem: 42-10-35N, Boylam: 042-28-57E, yükseklik: 68 m

Güncel hava durumu gözlemi

Rapor saat 09:30 UTC de 26 dakika önce yapıldı.
Rüzgar doğudan 17 kt ve 27 kt'a kadar ani rüzgarlar
Sıcaklık 15°C
Nem 44%
Basınç 1020 hPa
Görüş mesafesi 10 km veya daha fazla
1500 m altında bulut yok ve kümülonimbus yok

METAR: UGKO 190930Z 09017G27KT CAVOK 15/03 Q1020 NOSIG

Saat: 13:56 (09:56 UTC)

Tahmin

Rapor saat 05:00 UTC de 4 saat ve 56 dakika önce yapıldı.
Ayın 19'si saat 06 UTC'den ayın 20'si saat 06 UTC'ye kadar geçerli Tahmin
Rüzgar doğudan 16 kt
Görüş mesafesi 10 km veya daha fazla
1500 m altında bulut yok ve kümülonimbus yok

TAF: UGKO 190500Z 1906/2006 08016KT CAVOK TX17/1911Z TN08/2001Z

4.000'den fazla havaalanı için hava durumu gözlemleri ve tahminleri (METAR ve TAF raporları).

Kullanılabilir istasyonlar harita üzerinde sarı ve kırmızı noktalarla gösterilir.

İstasyonun adını görmek için fareyi noktanın üzerinde gezdirin.

Sonrasında hava gözlem ve tahminlerini görmek için tıklayın.

Haritayı değiştirmek için: yaklaştırmak için siyah artı işaretli yeşil düğmeye ve uzaklaştırmak için de eksi işaretli düğmeye hızla tıklayın; bitişik haritalar için yeşil okları kullanın.


METAR-TAF: